createdAt,value
2022-10-17T00:00:16.577Z,99.90
2022-10-17T00:02:43.154Z,99.90
2022-10-17T00:05:09.796Z,99.90
2022-10-17T00:07:36.391Z,99.90
2022-10-17T00:10:04.163Z,99.90
2022-10-17T00:12:30.780Z,99.90
2022-10-17T00:14:57.407Z,99.90
2022-10-17T00:17:24.157Z,99.90
2022-10-17T00:19:50.748Z,99.90
2022-10-17T00:22:17.359Z,99.90
2022-10-17T00:24:43.966Z,99.90
2022-10-17T00:27:10.571Z,99.90
2022-10-17T00:29:37.194Z,99.90
2022-10-17T00:32:03.908Z,99.90
2022-10-17T00:34:30.543Z,99.90
2022-10-17T00:36:57.656Z,99.90
2022-10-17T00:39:24.298Z,99.90
2022-10-17T00:41:51.107Z,99.90
2022-10-17T00:44:29.942Z,99.90
2022-10-17T00:46:58.247Z,99.90
2022-10-17T00:49:30.134Z,99.90
2022-10-17T00:52:00.952Z,99.90
2022-10-17T00:54:33.343Z,99.90
2022-10-17T00:57:00.199Z,99.90
2022-10-17T00:59:28.159Z,99.90
2022-10-17T01:02:05.859Z,99.90
2022-10-17T01:04:32.563Z,99.90
2022-10-17T01:06:59.159Z,99.90
2022-10-17T01:09:26.930Z,99.90
2022-10-17T01:12:17.131Z,99.90
2022-10-17T01:15:05.473Z,99.90
2022-10-17T01:18:22.150Z,99.90
2022-10-17T01:21:12.056Z,99.90
2022-10-17T01:23:41.370Z,99.90
2022-10-17T01:26:33.511Z,99.90
2022-10-17T01:29:11.911Z,99.90
2022-10-17T01:31:45.683Z,99.90
2022-10-17T01:34:21.771Z,99.90
2022-10-17T01:37:02.077Z,99.90
2022-10-17T01:39:54.569Z,99.90
2022-10-17T01:42:37.532Z,99.90
2022-10-17T01:45:14.387Z,99.90
2022-10-17T01:47:42.164Z,99.90
2022-10-17T01:50:19.808Z,99.90
2022-10-17T01:52:51.811Z,99.90
2022-10-17T01:55:29.618Z,99.90
2022-10-17T01:58:02.519Z,99.90
2022-10-17T02:00:30.820Z,99.90
2022-10-17T02:03:02.027Z,99.90
2022-10-17T02:05:33.424Z,99.90
2022-10-17T02:08:00.010Z,99.90
2022-10-17T02:10:51.217Z,99.90
2022-10-17T02:13:55.377Z,99.90
2022-10-17T02:16:50.426Z,99.90
2022-10-17T02:19:58.789Z,99.90
2022-10-17T02:22:39.531Z,99.90
2022-10-17T02:25:34.731Z,99.90
2022-10-17T02:28:21.523Z,99.90
2022-10-17T02:31:02.161Z,99.90
2022-10-17T02:33:34.354Z,99.90
2022-10-17T02:36:07.078Z,99.90
2022-10-17T02:38:35.164Z,99.90
2022-10-17T02:41:02.004Z,99.90
2022-10-17T02:43:28.954Z,99.90
2022-10-17T02:45:57.225Z,99.90
2022-10-17T02:48:47.378Z,99.90
2022-10-17T02:51:25.652Z,99.90
2022-10-17T02:54:06.116Z,99.90
2022-10-17T02:56:47.311Z,99.90
2022-10-17T02:59:17.615Z,99.90
2022-10-17T03:01:44.443Z,99.90
2022-10-17T03:04:13.467Z,99.90
2022-10-17T03:06:41.226Z,99.90
2022-10-17T03:09:07.972Z,99.90
2022-10-17T03:11:34.955Z,99.90
2022-10-17T03:14:01.651Z,99.90
2022-10-17T03:16:28.339Z,99.90
2022-10-17T03:18:54.975Z,99.90
2022-10-17T03:21:21.847Z,99.90
2022-10-17T03:23:48.513Z,99.90
2022-10-17T03:26:15.277Z,99.90
2022-10-17T03:28:41.941Z,99.90
2022-10-17T03:31:10.613Z,99.90
2022-10-17T03:33:37.547Z,99.90
2022-10-17T03:36:13.025Z,99.90
2022-10-17T03:38:39.975Z,99.90
2022-10-17T03:41:07.377Z,99.90
2022-10-17T03:43:34.351Z,99.90
2022-10-17T03:46:01.556Z,99.90
2022-10-17T03:48:29.776Z,99.90
2022-10-17T03:51:07.667Z,99.90
2022-10-17T03:53:34.745Z,99.90
2022-10-17T03:56:18.677Z,99.90
2022-10-17T03:58:45.537Z,99.90
2022-10-17T04:01:14.500Z,99.90
2022-10-17T04:03:41.839Z,99.90
2022-10-17T04:06:10.750Z,99.90
2022-10-17T04:08:37.348Z,99.90
2022-10-17T04:11:06.725Z,99.90
2022-10-17T04:13:33.908Z,99.90
2022-10-17T04:16:10.126Z,99.90
2022-10-17T04:18:36.683Z,99.90
2022-10-17T04:21:05.471Z,99.90
2022-10-17T04:23:32.129Z,99.90
2022-10-17T04:26:00.397Z,99.90
2022-10-17T04:28:28.023Z,99.90
2022-10-17T04:30:59.405Z,99.90
2022-10-17T04:33:26.410Z,99.90
2022-10-17T04:36:03.951Z,99.90
2022-10-17T04:38:31.477Z,99.90
2022-10-17T04:40:59.316Z,99.90
2022-10-17T04:43:25.898Z,99.90
2022-10-17T04:45:52.449Z,99.90
2022-10-17T04:48:19.125Z,99.90
2022-10-17T04:50:56.548Z,99.90
2022-10-17T04:53:24.575Z,99.90
2022-10-17T04:55:51.435Z,99.90
2022-10-17T04:58:18.049Z,99.90
2022-10-17T05:00:44.831Z,99.90
2022-10-17T05:03:11.909Z,99.90
2022-10-17T05:05:39.826Z,99.90
2022-10-17T05:08:07.783Z,99.90
2022-10-17T05:10:42.815Z,99.90
2022-10-17T05:13:10.535Z,99.90
2022-10-17T05:15:37.790Z,99.90
2022-10-17T05:18:05.504Z,99.90
2022-10-17T05:20:33.107Z,99.90
2022-10-17T05:23:00.098Z,99.90
2022-10-17T05:25:26.707Z,99.90
2022-10-17T05:27:53.833Z,99.90
2022-10-17T05:30:20.557Z,99.90
2022-10-17T05:32:47.139Z,99.90
2022-10-17T05:35:13.735Z,99.90
2022-10-17T05:37:40.298Z,99.90
2022-10-17T05:40:07.580Z,99.90
2022-10-17T05:42:34.261Z,99.90
2022-10-17T05:45:00.934Z,99.90
2022-10-17T05:47:27.938Z,99.90
2022-10-17T05:49:54.844Z,99.90
2022-10-17T05:52:21.435Z,99.90
2022-10-17T05:54:48.014Z,99.90
2022-10-17T05:57:14.562Z,99.90
2022-10-17T05:59:41.119Z,99.90
2022-10-17T06:02:09.104Z,99.90
2022-10-17T06:04:35.691Z,99.90
2022-10-17T06:07:02.274Z,99.90
2022-10-17T06:09:28.992Z,99.90
2022-10-17T06:11:55.577Z,99.90
2022-10-17T06:14:22.338Z,99.90
2022-10-17T06:16:48.936Z,99.90
2022-10-17T06:19:15.587Z,99.90
2022-10-17T06:21:42.295Z,99.90
2022-10-17T06:24:08.879Z,99.90
2022-10-17T06:26:35.479Z,99.90
2022-10-17T06:29:02.138Z,99.90
2022-10-17T06:31:28.911Z,99.90
2022-10-17T06:33:55.527Z,99.90
2022-10-17T06:36:22.146Z,99.90
2022-10-17T06:38:48.719Z,99.90
2022-10-17T06:41:16.907Z,99.90
2022-10-17T06:43:45.039Z,99.90
2022-10-17T06:46:12.359Z,99.90
2022-10-17T06:48:39.070Z,99.90
2022-10-17T06:51:07.011Z,99.90
2022-10-17T06:53:34.649Z,99.90
2022-10-17T06:56:02.113Z,99.90
2022-10-17T06:58:34.361Z,99.90
2022-10-17T07:01:02.795Z,99.90
2022-10-17T07:03:30.138Z,99.90
2022-10-17T07:05:57.491Z,99.90
2022-10-17T07:08:24.345Z,99.90
2022-10-17T07:10:51.278Z,99.90
2022-10-17T07:13:19.413Z,99.90
2022-10-17T07:15:46.784Z,99.90
2022-10-17T07:18:13.829Z,99.90
2022-10-17T07:20:40.690Z,99.90
2022-10-17T07:23:07.644Z,99.90
2022-10-17T07:25:36.514Z,99.90
2022-10-17T07:28:05.963Z,99.90
2022-10-17T07:30:36.024Z,99.90
2022-10-17T07:33:02.615Z,99.90
2022-10-17T07:35:29.199Z,99.90
2022-10-17T07:37:55.786Z,99.90
2022-10-17T07:40:22.385Z,99.90
2022-10-17T07:42:48.997Z,99.90
2022-10-17T07:45:15.637Z,99.90
2022-10-17T07:47:42.587Z,99.90
2022-10-17T07:50:09.762Z,99.90
2022-10-17T07:52:36.437Z,99.90
2022-10-17T07:55:03.260Z,99.90
2022-10-17T07:57:29.844Z,99.90
2022-10-17T07:59:56.427Z,99.90
2022-10-17T08:02:27.120Z,99.90
2022-10-17T08:04:54.298Z,99.90
2022-10-17T08:07:26.836Z,99.90
2022-10-17T08:09:55.846Z,99.90
2022-10-17T08:12:22.501Z,99.90
2022-10-17T08:14:49.158Z,99.90
2022-10-17T08:17:15.747Z,99.90
2022-10-17T08:19:42.381Z,99.90
2022-10-17T08:22:09.038Z,99.90
2022-10-17T08:24:35.785Z,99.90
2022-10-17T08:27:02.518Z,99.90
2022-10-17T08:29:29.240Z,99.90
2022-10-17T08:32:00.200Z,99.90
2022-10-17T08:34:28.130Z,99.90
2022-10-17T08:36:54.831Z,99.90
2022-10-17T08:39:21.429Z,99.90
2022-10-17T08:41:56.547Z,99.90
2022-10-17T08:45:07.444Z,99.90
2022-10-17T08:47:40.661Z,99.90
2022-10-17T08:50:13.240Z,99.90
2022-10-17T08:52:46.885Z,99.90
2022-10-17T08:55:41.275Z,99.90
2022-10-17T08:58:14.930Z,99.90
2022-10-17T09:00:47.847Z,99.90
2022-10-17T09:04:08.351Z,99.90
2022-10-17T09:06:40.552Z,99.90
2022-10-17T09:09:31.764Z,99.90
2022-10-17T09:12:13.487Z,99.90
2022-10-17T09:14:48.969Z,99.90
2022-10-17T09:17:33.386Z,99.90
2022-10-17T09:20:08.387Z,99.90
2022-10-17T09:22:51.486Z,99.90
2022-10-17T09:25:22.991Z,99.90
2022-10-17T09:27:53.761Z,99.90
2022-10-17T09:30:45.500Z,99.90
2022-10-17T09:33:34.388Z,99.90
2022-10-17T09:36:10.675Z,99.90
2022-10-17T09:38:41.549Z,99.90
2022-10-17T09:41:42.785Z,99.90
2022-10-17T09:44:14.715Z,99.90
2022-10-17T09:46:51.844Z,99.90
2022-10-17T09:49:25.886Z,99.90
2022-10-17T09:51:52.631Z,99.90
2022-10-17T09:54:30.389Z,99.90
2022-10-17T09:57:20.426Z,99.90
2022-10-17T10:00:00.402Z,99.90
2022-10-17T10:02:29.550Z,99.90
2022-10-17T10:05:06.435Z,99.90
2022-10-17T10:07:37.088Z,99.90
2022-10-17T10:10:06.983Z,99.90
2022-10-17T10:12:36.657Z,99.90
2022-10-17T10:15:32.323Z,99.90
2022-10-17T10:17:58.957Z,99.90
2022-10-17T10:20:35.321Z,99.90
2022-10-17T10:23:20.195Z,99.90
2022-10-17T10:25:58.648Z,99.90
2022-10-17T10:28:31.728Z,99.90
2022-10-17T10:31:02.870Z,99.90
2022-10-17T10:33:31.837Z,99.90
2022-10-17T10:36:04.403Z,99.90
2022-10-17T10:38:33.927Z,99.90
2022-10-17T10:41:06.217Z,99.90
2022-10-17T10:43:40.789Z,99.90
2022-10-17T10:46:23.213Z,99.90
2022-10-17T10:48:56.178Z,99.90
2022-10-17T10:51:37.579Z,99.90
2022-10-17T10:54:15.757Z,99.90
2022-10-17T10:56:51.321Z,99.90
2022-10-17T10:59:34.739Z,99.90
2022-10-17T11:02:29.229Z,99.90
2022-10-17T11:04:58.630Z,99.90
2022-10-17T11:07:48.488Z,99.90
2022-10-17T11:10:25.539Z,99.90
2022-10-17T11:13:05.684Z,99.90
2022-10-17T11:15:53.640Z,99.90
2022-10-17T11:18:28.413Z,99.90
2022-10-17T11:21:00.490Z,99.90
2022-10-17T11:23:34.974Z,99.90
2022-10-17T11:26:07.053Z,99.90
2022-10-17T11:28:33.721Z,99.90
2022-10-17T11:31:07.285Z,99.90
2022-10-17T11:34:04.750Z,99.90
2022-10-17T11:36:41.945Z,99.90
2022-10-17T11:39:16.879Z,99.90
2022-10-17T11:41:46.555Z,99.30
2022-10-17T11:44:29.641Z,99.90
2022-10-17T11:47:22.339Z,99.20
2022-10-17T11:53:31.239Z,99.50
2022-10-17T11:56:00.255Z,99.40
2022-10-17T11:58:42.229Z,99.10
2022-10-17T12:01:21.023Z,99.20
2022-10-17T12:04:06.184Z,98.70
2022-10-17T12:06:35.746Z,99.00
2022-10-17T12:09:43.917Z,98.70
2022-10-17T12:12:10.525Z,97.80
2022-10-17T12:14:44.869Z,97.80
2022-10-17T12:17:23.479Z,98.00
2022-10-17T12:19:50.063Z,97.60
2022-10-17T12:22:23.115Z,96.80
2022-10-17T12:25:03.000Z,97.30
2022-10-17T12:27:42.157Z,97.60
2022-10-17T12:30:11.847Z,96.90
2022-10-17T12:33:07.473Z,97.80
2022-10-17T12:35:36.409Z,97.50
2022-10-17T12:38:21.082Z,97.20
2022-10-17T12:40:49.890Z,98.70
2022-10-17T12:43:16.414Z,98.80
2022-10-17T12:45:52.714Z,98.40
2022-10-17T12:48:34.787Z,98.90
2022-10-17T12:51:37.446Z,98.90
2022-10-17T12:54:15.820Z,98.50
2022-10-17T12:56:46.625Z,99.60
2022-10-17T12:59:28.787Z,99.30
2022-10-17T13:01:59.655Z,99.80
2022-10-17T13:04:27.832Z,99.90
2022-10-17T13:06:58.730Z,99.90
2022-10-17T13:09:36.410Z,99.80
2022-10-17T13:12:06.303Z,99.30
2022-10-17T13:14:34.728Z,99.90
2022-10-17T13:17:07.135Z,99.90
2022-10-17T13:19:43.348Z,99.90
2022-10-17T13:22:24.614Z,99.90
2022-10-17T13:24:53.086Z,99.90
2022-10-17T13:27:29.401Z,99.90
2022-10-17T13:29:58.674Z,99.90
2022-10-17T13:32:27.815Z,99.90
2022-10-17T13:35:06.859Z,99.90
2022-10-17T13:37:35.036Z,99.90
2022-10-17T13:40:11.327Z,99.90
2022-10-17T13:42:49.117Z,99.90
2022-10-17T13:45:21.702Z,99.90
2022-10-17T13:47:52.938Z,99.90
2022-10-17T13:50:43.625Z,99.90
2022-10-17T13:53:30.161Z,99.90
2022-10-17T13:56:28.793Z,99.90
2022-10-17T13:58:58.820Z,99.90
2022-10-17T14:01:27.425Z,99.90
2022-10-17T14:04:07.934Z,99.90
2022-10-17T14:06:47.640Z,99.90
2022-10-17T14:09:21.100Z,99.90
2022-10-17T14:12:16.979Z,99.90
2022-10-17T14:15:09.208Z,99.90
2022-10-17T14:17:36.010Z,99.90
2022-10-17T14:20:34.542Z,99.90
2022-10-17T14:23:17.378Z,99.90
2022-10-17T14:25:40.399Z,99.90
2022-10-17T14:28:12.989Z,99.90
2022-10-17T14:30:56.329Z,99.90
2022-10-17T14:33:29.663Z,99.90
2022-10-17T14:35:58.829Z,99.90
2022-10-17T14:38:26.075Z,99.90
2022-10-17T14:41:23.599Z,99.90
2022-10-17T14:43:57.780Z,99.90
2022-10-17T14:46:25.359Z,99.90
2022-10-17T14:49:02.075Z,99.90
2022-10-17T14:51:32.560Z,99.90
2022-10-17T14:54:26.456Z,99.90
2022-10-17T14:56:54.202Z,99.90
2022-10-17T14:59:35.474Z,99.90
2022-10-17T15:02:08.524Z,99.90
2022-10-17T15:04:35.071Z,99.90
2022-10-17T15:07:01.717Z,99.90
2022-10-17T15:09:28.499Z,99.90
2022-10-17T15:12:02.629Z,99.90
2022-10-17T15:14:29.297Z,99.90
2022-10-17T15:16:56.022Z,99.90
2022-10-17T15:19:22.683Z,99.90
2022-10-17T15:21:49.259Z,99.90
2022-10-17T15:24:15.834Z,99.90
2022-10-17T15:26:42.536Z,99.90
2022-10-17T15:29:15.772Z,99.90
2022-10-17T15:31:42.377Z,99.90
2022-10-17T15:34:08.967Z,99.90
2022-10-17T15:36:48.095Z,99.90
2022-10-17T15:39:14.688Z,99.90
2022-10-17T15:41:41.271Z,99.90
2022-10-17T15:44:07.882Z,99.90
2022-10-17T15:46:35.381Z,99.90
2022-10-17T15:49:04.646Z,99.90
2022-10-17T15:51:31.315Z,99.90
2022-10-17T15:53:57.965Z,99.90
2022-10-17T15:56:38.251Z,99.90
2022-10-17T15:59:16.922Z,99.90
2022-10-17T16:01:43.825Z,99.90
2022-10-17T16:04:12.562Z,99.90
2022-10-17T16:06:39.395Z,99.90
2022-10-17T16:09:05.996Z,99.90
2022-10-17T16:11:41.657Z,99.90
2022-10-17T16:14:12.579Z,99.90
2022-10-17T16:16:39.472Z,99.90
2022-10-17T16:19:06.415Z,99.90
2022-10-17T16:21:36.953Z,99.90
2022-10-17T16:24:04.503Z,99.90
2022-10-17T16:26:31.266Z,99.90
2022-10-17T16:28:58.033Z,99.90
2022-10-17T16:31:27.025Z,99.90
2022-10-17T16:33:55.031Z,99.90
2022-10-17T16:36:22.204Z,99.90
2022-10-17T16:38:49.619Z,99.90
2022-10-17T16:41:45.822Z,99.90
2022-10-17T16:44:18.050Z,99.90
2022-10-17T16:46:44.626Z,99.90
2022-10-17T16:49:11.202Z,99.90
2022-10-17T16:51:37.862Z,99.90
2022-10-17T16:54:04.483Z,99.90
2022-10-17T16:56:31.379Z,99.90
2022-10-17T16:58:58.192Z,99.90
2022-10-17T17:01:25.888Z,99.90
2022-10-17T17:03:53.461Z,99.90
2022-10-17T17:06:23.375Z,99.90
2022-10-17T17:08:50.618Z,99.90
2022-10-17T17:11:19.463Z,99.90
2022-10-17T17:13:46.244Z,99.90
2022-10-17T17:16:14.886Z,99.90
2022-10-17T17:18:42.035Z,99.90
2022-10-17T17:21:10.261Z,99.90
2022-10-17T17:23:39.592Z,99.90
2022-10-17T17:26:09.227Z,99.90
2022-10-17T17:28:36.365Z,99.90
2022-10-17T17:31:07.325Z,99.90
2022-10-17T17:33:33.909Z,99.90
2022-10-17T17:36:01.965Z,99.90
2022-10-17T17:38:29.825Z,99.90
2022-10-17T17:40:56.732Z,99.90
2022-10-17T17:43:23.430Z,99.90
2022-10-17T17:45:50.498Z,99.90
2022-10-17T17:48:17.197Z,99.90
2022-10-17T17:50:44.638Z,99.90
2022-10-17T17:53:13.037Z,99.90
2022-10-17T17:55:39.831Z,99.90
2022-10-17T17:58:06.689Z,99.90
2022-10-17T18:00:33.535Z,99.90
2022-10-17T18:03:00.431Z,99.90
2022-10-17T18:05:27.579Z,99.90
2022-10-17T18:07:54.163Z,99.90
2022-10-17T18:10:20.798Z,99.90
2022-10-17T18:12:47.457Z,99.90
2022-10-17T18:15:14.685Z,99.90
2022-10-17T18:17:41.626Z,99.90
2022-10-17T18:20:08.812Z,99.90
2022-10-17T18:22:35.460Z,99.90
2022-10-17T18:25:02.268Z,99.90
2022-10-17T18:27:28.861Z,99.90
2022-10-17T18:29:55.510Z,99.90
2022-10-17T18:32:22.086Z,99.90
2022-10-17T18:34:48.669Z,99.90
2022-10-17T18:37:15.259Z,99.90
2022-10-17T18:39:41.848Z,99.90
2022-10-17T18:42:08.656Z,99.90
2022-10-17T18:44:35.267Z,99.90
2022-10-17T18:47:04.129Z,99.90
2022-10-17T18:49:31.387Z,99.90
2022-10-17T18:51:58.001Z,99.90
2022-10-17T18:54:24.617Z,99.90
2022-10-17T18:56:52.835Z,99.90
2022-10-17T18:59:20.560Z,99.90
2022-10-17T19:01:47.626Z,99.90
2022-10-17T19:04:14.592Z,99.90
2022-10-17T19:06:41.478Z,99.90
2022-10-17T19:09:10.899Z,99.90
2022-10-17T19:11:38.514Z,99.90
2022-10-17T19:14:07.514Z,99.90
2022-10-17T19:16:36.366Z,99.90
2022-10-17T19:19:13.648Z,99.90
2022-10-17T19:21:40.747Z,99.90
2022-10-17T19:24:12.038Z,99.90
2022-10-17T19:26:39.500Z,99.90
2022-10-17T19:29:06.609Z,99.90
2022-10-17T19:31:34.777Z,99.90
2022-10-17T19:34:01.674Z,99.90
2022-10-17T19:36:33.255Z,99.90
2022-10-17T19:39:05.938Z,99.90
2022-10-17T19:41:33.141Z,99.90
2022-10-17T19:44:00.429Z,99.90
2022-10-17T19:46:28.323Z,99.90
2022-10-17T19:48:55.214Z,99.90
2022-10-17T19:51:23.053Z,99.90
2022-10-17T19:53:50.214Z,99.90
2022-10-17T19:56:16.825Z,99.90
2022-10-17T19:58:43.410Z,99.90
2022-10-17T20:01:11.520Z,99.90
2022-10-17T20:03:38.164Z,99.90
2022-10-17T20:06:04.948Z,99.90
2022-10-17T20:08:31.540Z,99.90
2022-10-17T20:11:06.367Z,99.90
2022-10-17T20:13:35.748Z,99.90
2022-10-17T20:16:03.220Z,99.90
2022-10-17T20:18:30.054Z,99.90
2022-10-17T20:21:01.761Z,99.90
2022-10-17T20:23:28.328Z,99.90
2022-10-17T20:26:06.698Z,99.90
2022-10-17T20:28:40.351Z,99.90
2022-10-17T20:31:08.777Z,99.90
2022-10-17T20:33:35.448Z,99.90
2022-10-17T20:36:05.993Z,99.90
2022-10-17T20:38:32.610Z,99.90
2022-10-17T20:41:09.630Z,99.90
2022-10-17T20:43:37.042Z,99.90
2022-10-17T20:46:21.893Z,99.90
2022-10-17T20:48:53.868Z,99.90
2022-10-17T20:51:21.122Z,99.90
2022-10-17T20:53:48.580Z,99.90
2022-10-17T20:56:24.038Z,99.90
2022-10-17T20:58:56.166Z,99.90
2022-10-17T21:01:23.827Z,99.90
2022-10-17T21:03:51.074Z,99.90
2022-10-17T21:06:18.434Z,99.90
2022-10-17T21:08:46.667Z,99.90
2022-10-17T21:11:18.830Z,99.90
2022-10-17T21:13:46.791Z,99.90
2022-10-17T21:16:18.529Z,99.90
2022-10-17T21:18:45.526Z,99.90
2022-10-17T21:21:16.021Z,99.90
2022-10-17T21:23:45.234Z,99.90
2022-10-17T21:26:13.178Z,99.90
2022-10-17T21:28:41.085Z,99.90
2022-10-17T21:31:28.189Z,99.90
2022-10-17T21:34:01.600Z,99.90
2022-10-17T21:36:28.469Z,99.90
2022-10-17T21:38:56.330Z,99.90
2022-10-17T21:41:27.985Z,99.90
2022-10-17T21:44:00.841Z,99.90
2022-10-17T21:46:28.544Z,99.90
2022-10-17T21:48:55.186Z,99.90
2022-10-17T21:51:23.766Z,99.90
2022-10-17T21:53:51.957Z,99.90
2022-10-17T21:56:20.829Z,99.90
2022-10-17T21:58:48.889Z,99.90
2022-10-17T22:01:20.950Z,99.90
2022-10-17T22:03:50.691Z,99.90
2022-10-17T22:09:13.057Z,99.90
2022-10-17T22:11:39.712Z,99.90
2022-10-17T22:14:10.663Z,99.90
2022-10-17T22:16:38.617Z,99.90
2022-10-17T22:19:06.867Z,99.90
2022-10-17T22:21:35.953Z,99.90
2022-10-17T22:24:06.252Z,99.90
2022-10-17T22:26:34.662Z,99.90
2022-10-17T22:29:01.702Z,99.90
2022-10-17T22:31:28.343Z,99.90
2022-10-17T22:33:55.779Z,99.90
2022-10-17T22:36:22.426Z,99.90
2022-10-17T22:38:49.026Z,99.90
2022-10-17T22:41:15.875Z,99.90
2022-10-17T22:43:42.447Z,99.90
2022-10-17T22:46:12.145Z,99.90
2022-10-17T22:48:38.971Z,99.90
2022-10-17T22:51:05.589Z,99.90
2022-10-17T22:53:32.184Z,99.90
2022-10-17T22:56:00.952Z,99.90
2022-10-17T22:58:29.030Z,99.90
2022-10-17T23:00:56.371Z,99.90
2022-10-17T23:03:24.463Z,99.90
2022-10-17T23:05:51.263Z,99.90
2022-10-17T23:08:18.457Z,99.90
2022-10-17T23:10:46.358Z,99.90
2022-10-17T23:13:14.249Z,99.90
2022-10-17T23:15:41.319Z,99.90
2022-10-17T23:18:08.067Z,99.90
2022-10-17T23:20:34.836Z,99.90
2022-10-17T23:23:01.423Z,99.90
2022-10-17T23:25:28.285Z,99.90
2022-10-17T23:27:55.080Z,99.90
2022-10-17T23:30:21.649Z,99.90
2022-10-17T23:32:48.286Z,99.90
2022-10-17T23:35:15.126Z,99.90
2022-10-17T23:37:41.869Z,99.90
2022-10-17T23:40:09.341Z,99.90
2022-10-17T23:42:35.979Z,99.90
2022-10-17T23:45:02.996Z,99.90
2022-10-17T23:47:29.853Z,99.90
2022-10-17T23:49:57.174Z,99.90
2022-10-17T23:52:23.852Z,99.90
2022-10-17T23:54:50.464Z,99.90
2022-10-17T23:57:17.185Z,99.90
2022-10-17T23:59:43.805Z,99.90
